SAZSSCJO

Guest
Details From SAZS - SAN CARLOS DE BARILOCHE
To SCJO - Canal Bajo
Flight Number -
Tags generated
Created
Modified
Stats Distance 92 nm / 171 km
Max Altitude 500 ft / 152 m
Waypoints 3
Social Downloads 0
Likes 0
Share VATSIM

Download

Looking for another format? Having issues loading an existing format? Contact us
Advertisement - Login to hide

Notes

Basic altitude profile: - Ascent Rate: 2500ft/min - Ascent Speed: 180kts - Cruise Altitude: 15000ft - Cruise Speed: 220kts - Descent Rate: 1500ft/min - Descent Speed: 200kts Options: - Use NATs: yes - Use PACOTS: yes - Use low airways: yes - Use high airways: no

Route

SAZS BAR SCJO

ID Type Via Altitude Latitude Longitude Leg Dist Tot Dist Heading (true) Name
O SAZS APT - 0 ft / 0 m -41.15117˚ -71.15754˚ - 0 nm - SAN CARLOS DE BARILOCHE
BAR VOR - 500 ft / 152 m -41.14028˚ -71.18889˚ 1 nm 1 nm 295° / 295° SAN CARLOS DE BARILOCHE VOR-DM
O SCJO APT - 0 ft / 0 m -40.61121˚ -73.06104˚ 90 nm 92 nm 290° / 291° Canal Bajo

Altitude Profile

Advertisement - Login to hide

SAZS

Details ICAO SAZS (BRC)
Name SAN CARLOS DE BARILOCHE
Region Argentina
Timezone America/Argentina/Salta (UTC-3.0)
Stats Elevation 2,776 ft / 846 m (AMSL)
Location -41.151172° -71.157541°
Runways 1
Magnetic Variation 6.657° E

METAR

SAZS 172100Z 29014KT CAVOK 17/01 Q1017

Decode

TAF

TAF SAZS 171700Z 1718/1818 28015KT 9999 SCT045 TX25/1818Z TN05/1810Z BECMG 1808/1810 11005KT BECMG 1816/1818 27015KT

Decode

Departure Runways

ID Width Length Bearing (true) Bearing (mag) Surface Threshold Offset Overrun Length
11 157 ft / 48 m 7,693 ft / 2,345 m 114.70° 108.04° Asphalt 0 ft / 0 m 0 ft / 0 m
29 157 ft / 48 m 7,693 ft / 2,345 m 294.68° 288.02° Asphalt 0 ft / 0 m 0 ft / 0 m

SCJO

Details ICAO SCJO (ZOS)
Name Canal Bajo
Region Chile
Timezone America/Santiago (UTC-3.0)
Stats Elevation 187 ft / 57 m (AMSL)
Location -40.611210° -73.061039°
Runways 1
Magnetic Variation 7.983° E

METAR

SCJO 172100Z 17010KT 9999 FEW040 17/03 Q1021

Decode

TAF

TAF TAF SCJO 171011Z 1712/1724 VRB02KT CAVOK TN05/1712Z TX18/1718Z TEMPO 1712/1713 3000 BR NSC BECMG 1714/1716 18012KT

Decode

Destination Runways

ID Width Length Bearing (true) Bearing (mag) Surface Threshold Offset Overrun Length
15 118 ft / 36 m 5,583 ft / 1,702 m 146.00° 138.02° Asphalt 0 ft / 0 m 125 ft / 38 m
33 118 ft / 36 m 5,583 ft / 1,702 m 326.00° 318.02° Asphalt 0 ft / 0 m 138 ft / 42 m